ADDS METAR Data INFO
IDs: Format: Raw Decoded Include TAF

Data at: 2053 UTC 24 Jun 2017

KE38 242035Z AUTO 07010G16KT 030V090 10SM BKN055 30/13 A3026 RMK AO2 T02990130
KE38 242015Z AUTO 07010G20KT 10SM SCT055 31/13 A3027 RMK AO2 T03050131
KE38 241955Z AUTO 09011G16KT 10SM BKN055 30/14 A3027 RMK AO2 T03030135
KE38 241935Z AUTO 06012G17KT 050V110 10SM SCT055 30/14 A3028 RMK AO2 T02960136
KE38 241915Z AUTO 05012G22KT 10SM SCT048 SCT060 SCT070 28/14 A3029 RMK AO2 T02840139
KE38 241855Z AUTO 07014G18KT 10SM SCT046 BKN060 29/14 A3030 RMK AO2 T02860144
KE38 241835Z AUTO 08009G17KT 10SM SCT046 SCT050 29/15 A3030 RMK AO2 T02850145
KE38 241815Z AUTO 05008G15KT 10SM SCT049 SCT060 27/15 A3030 RMK AO2 T02720146
KE38 241755Z AUTO 06010G17KT 10SM BKN049 26/14 A3031 RMK AO2 T02640142 10270 20189
KE38 241735Z AUTO 06008G18KT 10SM BKN049 27/14 A3032 RMK AO2 T02650141
KE38 241715Z AUTO 08011G16KT 10SM CLR 26/14 A3032 RMK AO2 T02580140
KE38 241655Z AUTO 03012G18KT 10SM CLR 25/14 A3032 RMK AO2 T02520141
KE38 241635Z AUTO 05013KT 10SM CLR 25/14 A3032 RMK AO2 T02460143
KE38 241615Z AUTO 05009G15KT 10SM CLR 24/15 A3031 RMK AO2 T02430145
KE38 241555Z AUTO 06010KT 10SM CLR 24/15 A3030 RMK AO2 T02400147
KE38 241535Z AUTO 06015KT 10SM CLR 23/15 A3030 RMK AO2 T02320148
KE38 241515Z AUTO 06011KT 10SM CLR 24/15 A3029 RMK AO2 T02350150
KE38 241455Z AUTO 02011G20KT 10SM CLR 23/15 A3028 RMK AO2 T02300149
KE38 241435Z AUTO 01012KT 10SM CLR 23/15 A3028 RMK AO2 T02260153
KE38 241415Z AUTO 05010KT 10SM CLR 23/15 A3027 RMK AO2 T02290151
KE38 241355Z AUTO 01008KT 10SM CLR 23/15 A3026 RMK AO2 T02310147
KE38 241335Z AUTO 06010KT 10SM CLR 23/16 A3025 RMK AO2 T02290155
KE38 241315Z AUTO 00000KT 10SM CLR 22/15 A3021 RMK AO2 T02160152
KE38 241255Z AUTO 22003KT 10SM CLR 20/15 A3021 RMK AO2 T01970151
KE38 241235Z AUTO 24003KT 10SM CLR 20/15 A3019 RMK AO2 T01970146
KE38 241215Z AUTO 00000KT 10SM CLR 19/14 A3019 RMK AO2 T01940141
KE38 241155Z AUTO 32003KT 10SM CLR 18/14 A3018 RMK AO2 70007 T01840141 10265 20182
KE38 241135Z AUTO 24003KT 10SM CLR 19/14 A3017 RMK AO2 T01940140
KE38 241115Z AUTO 00000KT 10SM CLR 21/14 A3017 RMK AO2 T02140137
KE38 241055Z AUTO 15004KT 10SM CLR 21/14 A3016 RMK AO2 T02130138
KE38 241035Z AUTO 20006KT 10SM CLR 21/14 A3016 RMK AO2 T02090140
KE38 241015Z AUTO 18004KT 10SM CLR 21/14 A3016 RMK AO2 T02120139
KE38 240955Z AUTO 18009KT 10SM CLR 22/14 A3015 RMK AO2 T02160138
KE38 240935Z AUTO 19007KT 10SM CLR 21/14 A3015 RMK AO2 T02140140
KE38 240915Z AUTO 21006KT 10SM CLR 22/14 A3015 RMK AO2 T02160141
KE38 240855Z AUTO 17006KT 10SM CLR 22/14 A3015 RMK AO2 T02160141
KE38 240835Z AUTO 16009KT 10SM CLR 22/14 A3015 RMK AO2 T02210136
KE38 240815Z AUTO 27004KT 10SM CLR 21/13 A3014 RMK AO2 T02140127
KE38 240755Z AUTO 28003KT 10SM CLR 23/12 A3015 RMK AO2 T02320120
KE38 240735Z AUTO 00000KT 10SM CLR 24/12 A3015 RMK AO2 LTG DSNT S T02400116
KE38 240715Z AUTO 09010KT 10SM CLR 25/11 A3015 RMK AO2 T02530106
KE38 240655Z AUTO 09004KT 10SM CLR 25/11 A3015 RMK AO2 T02520105
KE38 240635Z AUTO 08005G14KT 10SM CLR 26/10 A3015 RMK AO2 LTG DSNT SE T02600104
KE38 240615Z AUTO 05005KT 10SM CLR 24/14 A3014 RMK AO2 LTG DSNT S T02430136
KE38 240555Z AUTO 19007KT 10SM CLR 26/12 A3013 RMK AO2 LTG DSNT SE 60007 T02580121 10324 20175 403940175
KE38 240535Z AUTO 22004KT 10SM CLR 25/13 A3013 RMK AO2 LTG DSNT SE T02520128
KE38 240515Z AUTO 15010G26KT 10SM SCT055 SCT065 SCT075 25/12 A3010 RMK AO2 LTG DSNT SE T02490122
KE38 240455Z AUTO 18023G27KT 10SM TS SCT049 SCT065 BKN120 18/16 A3010 RMK AO2 LTG DSNT SE P0003 T01750162
KE38 240435Z AUTO 11015KT 10SM TS SCT049 BKN080 OVC120 19/18 A3017 RMK AO2 LTG DSNT E THRU S P0003 T01860181
KE38 240415Z AUTO 16006KT 10SM VCTS SCT044 BKN070 OVC110 19/19 A3024 RMK AO2 LTG DSNT N THRU S P0002 T01920187
KE38 240355Z AUTO 09006KT 7SM TS SCT045 BKN060 OVC100 19/19 A3026 RMK AO2 LTG DSNT ALQS P0004 T01920185
KE38 240335Z AUTO 06011KT 10SM TS SCT060 OVC100 23/16 A3023 RMK AO2 LTG DSNT ALQS T02310162
KE38 240315Z AUTO 06010KT 10SM TS OVC100 23/16 A3020 RMK AO2 LTG DSNT ALQS T02330158
KE38 240255Z AUTO 04011KT 10SM VCTS BKN110 22/16 A3017 RMK AO2 LTG DSNT NE T02220161
KE38 240235Z AUTO 04012G19KT 10SM BKN110 24/15 A3017 RMK AO2 T02430148
KE38 240215Z AUTO 03023G30KT 5SM BKN110 27/13 A3014 RMK AO2 T02650128
KE38 240155Z AUTO 06005KT 10SM CLR 31/07 A3006 RMK AO2 LTG DSNT NW THRU NE T03080068
KE38 240135Z AUTO 22009KT 10SM CLR 31/07 A3001 RMK AO2 LTG DSNT NW THRU NE T03080072
KE38 240115Z AUTO 23012KT 10SM CLR 31/07 A3000 RMK AO2 LTG DSNT N AND NE T03120068
KE38 240055Z AUTO 23009KT 10SM CLR 32/06 A3001 RMK AO2 T03220061
KE38 240035Z AUTO 25012KT 10SM CLR 32/06 A2999 RMK AO2 T03200064
KE38 240015Z AUTO 23010KT 10SM CLR 32/08 A2998 RMK AO2 LTG DSNT NE T03150077
KE38 232355Z AUTO 23014G18KT 10SM CLR 31/08 A2998 RMK AO2 LTG DSNT NE T03070082 10394 20304
KE38 232335Z AUTO 24016G25KT 10SM CLR 31/08 A3000 RMK AO2 LTG DSNT W T03050083
KE38 232315Z AUTO 23018G22KT 10SM CLR 32/08 A3000 RMK AO2 LTG DSNT SW AND W T03230078
KE38 232250Z AUTO 24010G15KT 180V270 10SM CLR 36/09 A3000 RMK AO2 LTG DSNT W T03550089
KE38 232235Z AUTO 14008KT 10SM CLR 36/07 A2998 RMK AO2 LTG DSNT SW AND W T03600072
KE38 232215Z AUTO 12003KT 10SM CLR 36/07 A2997 RMK AO2 LTG DSNT SW AND W T03600065
KE38 232155Z AUTO 13007KT 10SM CLR 37/07 A2997 RMK AO2 LTG DSNT SW AND W T03650065
KE38 232135Z AUTO 11005KT 10SM VCTS CLR 37/07 A2998 RMK AO2 LTG DSNT W T03690066
KE38 232115Z AUTO 11009KT 10SM CLR 38/07 A2998 RMK AO2 LTG DSNT W AND NW T03840067
KE38 232055Z AUTO 17004G08KT 10SM CLR 38/07 A2999 RMK AO2 LTG DSNT W T03790067
KE38 232035Z AUTO 15005KT 10SM CLR 38/07 A3000 RMK AO2 T03770066
KE38 232015Z AUTO 10008KT 10SM CLR 38/07 A3001 RMK AO2 T03750070
KE38 231955Z AUTO 11009G21KT 10SM CLR 39/08 A3002 RMK AO2 T03900076
KE38 231935Z AUTO 16005G14KT 10SM CLR 38/07 A3002 RMK AO2 T03780070
KE38 231915Z AUTO 11008KT 10SM CLR 38/07 A3002 RMK AO2 T03780066
KE38 231855Z AUTO 11010G15KT 070V130 10SM CLR 37/08 A3003 RMK AO2 T03730084
KE38 231835Z AUTO 10008G16KT 10SM CLR 38/09 A3003 RMK AO2 T03750090
KE38 231815Z AUTO 11008G16KT 10SM CLR 37/09 A3003 RMK AO2 T03720090
KE38 231755Z AUTO 09011G19KT 10SM CLR 37/09 A3003 RMK AO2 T03740093 10374 20260
KE38 231735Z AUTO 08010G16KT 070V130 10SM CLR 37/08 A3004 RMK AO2 T03690080
KE38 231715Z AUTO 05012G16KT 10SM CLR 37/08 A3003 RMK AO2 T03680080
KE38 231655Z AUTO 05007KT 10SM CLR 36/08 A3003 RMK AO2 T03630081
KE38 231635Z AUTO 13004KT 10SM CLR 36/08 A3003 RMK AO2 T03560081
KE38 231615Z AUTO 04004KT 10SM CLR 34/08 A3003 RMK AO2 T03400082
KE38 231555Z AUTO 35003KT 10SM CLR 35/09 A3003 RMK AO2 T03470086
KE38 231535Z AUTO 11004KT 10SM CLR 33/09 A3002 RMK AO2 T03340089
KE38 231515Z AUTO 00000KT 10SM CLR 33/09 A3002 RMK AO2 T03280089
KE38 231455Z AUTO 11004KT 10SM CLR 32/10 A3001 RMK AO2 T03230095
KE38 231435Z AUTO 05003KT 10SM CLR 31/10 A3001 RMK AO2 T03120100
KE38 231415Z AUTO 10005KT 10SM CLR 31/10 A3000 RMK AO2 T03080097
KE38 231355Z AUTO 00000KT 10SM CLR 30/10 A3000 RMK AO2 T03020096
KE38 231335Z AUTO 21004KT 10SM CLR 30/09 A2999 RMK AO2 T03010092
KE38 231315Z AUTO 25007KT 10SM CLR 30/10 A2998 RMK AO2 T03010095
KE38 231255Z AUTO 25011KT 10SM CLR 29/10 A2997 RMK AO2 T02860098
KE38 231235Z AUTO 25008KT 10SM CLR 27/10 A2997 RMK AO2 T02710097
KE38 231215Z AUTO 21007KT 10SM CLR 27/10 A2997 RMK AO2 T02660096
KE38 231155Z AUTO 19004KT 10SM CLR 26/10 A2997 RMK AO2 T02600100 10281 20240
KE38 231135Z AUTO 22006KT 10SM CLR 27/10 A2998 RMK AO2 T02680102
KE38 231115Z AUTO 22007KT 10SM CLR 27/10 A2996 RMK AO2 T02700101
KE38 231055Z AUTO 22006KT 10SM CLR 26/10 A2996 RMK AO2 T02630099
KE38 231035Z AUTO 22007KT 10SM CLR 27/10 A2996 RMK AO2 T02680097
KE38 231015Z AUTO 20006KT 10SM CLR 27/10 A2995 RMK AO2 T02670095
KE38 230955Z AUTO 23005KT 10SM CLR 24/10 A2995 RMK AO2 T02420098
KE38 230935Z AUTO 00000KT 10SM CLR 25/10 A2995 RMK AO2 T02460097
KE38 230915Z AUTO 26004KT 10SM CLR 25/10 A2995 RMK AO2 T02470102
KE38 230855Z AUTO 20005KT 10SM CLR 26/10 A2995 RMK AO2 T02580104


Page loaded:  20:53 UTC  |   01:53 PM Pacific  |   02:53 PM Mountain  |   03:53 PM Central  |   04:53 PM Eastern

 

ADVISORIES

FORECASTS

FORECASTS

OBSERVATIONS

USER TOOLS

ABOUT US